Time;durP1;ratioP1;P1;durP2;ratioP2;P2;SDS_P1;SDS_P2;PMS_P1;PMS_P2;Temp;Humidity;BMP_temperature;BMP_pressure;BME280_temperature;BME280_humidity;BME280_pressure;Samples;Min_cycle;Max_cycle;Signal;HPM_P1;HPM_P2
2022/01/28 00:00:13;;;;;;;0.60;0.30;;;5.80;1.00;;;;;;4997248;28;20457;-73
2022/01/28 00:02:52;;;;;;;0.73;0.70;;;5.80;1.00;;;;;;4997401;28;20499;-73
2022/01/28 00:05:22;;;;;;;0.90;0.30;;;5.90;1.00;;;;;;4997549;28;20881;-74
2022/01/28 00:07:50;;;;;;;1.10;0.60;;;5.80;1.00;;;;;;4997614;28;20533;-73
2022/01/28 00:10:19;;;;;;;0.60;0.50;;;5.80;1.00;;;;;;4998266;28;20449;-73
2022/01/28 00:15:59;;;;;;;0.93;0.93;;;5.90;1.00;;;;;;4996490;28;20452;-73
2022/01/28 00:18:47;;;;;;;0.50;0.30;;;5.90;1.00;;;;;;4997539;28;20541;-73
2022/01/28 00:38:03;;;;;;;2.70;2.50;;;5.90;1.00;;;;;;4995695;28;21097;-73
2022/01/28 00:40:32;;;;;;;1.23;0.97;;;6.00;1.00;;;;;;4996902;28;20783;-73
2022/01/28 00:43:00;;;;;;;0.67;0.47;;;6.00;1.00;;;;;;4998357;28;20455;-73
2022/01/28 00:45:29;;;;;;;0.50;0.10;;;6.00;1.00;;;;;;4999478;28;20456;-73
2022/01/28 00:47:59;;;;;;;0.97;0.40;;;6.00;1.00;;;;;;4999400;28;20509;-73
2022/01/28 00:50:27;;;;;;;0.50;0.20;;;6.10;1.00;;;;;;4997803;28;20441;-73
2022/01/28 00:52:55;;;;;;;0.50;0.20;;;6.10;1.00;;;;;;4998362;28;20822;-73
2022/01/28 00:55:23;;;;;;;0.50;0.10;;;6.10;1.00;;;;;;4997491;28;20572;-73
2022/01/28 00:57:51;;;;;;;1.73;0.43;;;6.10;1.00;;;;;;4997914;28;20469;-73
2022/01/28 01:00:19;;;;;;;0.50;0.10;;;6.10;1.00;;;;;;4998772;28;20500;-71
2022/01/28 01:02:47;;;;;;;0.50;0.20;;;6.10;1.00;;;;;;5006800;28;20588;-74
2022/01/28 01:05:17;;;;;;;1.07;0.30;;;6.00;1.00;;;;;;5008355;28;20434;-74
2022/01/28 01:07:45;;;;;;;1.03;0.77;;;6.00;1.00;;;;;;5015328;28;20456;-73
2022/01/28 01:10:13;;;;;;;5.90;4.40;;;5.90;1.00;;;;;;5016039;28;20472;-74
2022/01/28 01:12:44;;;;;;;81.30;2.77;;;5.80;1.00;;;;;;5017063;28;20581;-73
2022/01/28 01:15:16;;;;;;;5.47;1.20;;;5.80;1.00;;;;;;5017115;28;20775;-73
2022/01/28 01:17:54;;;;;;;0.50;0.20;;;5.80;1.00;;;;;;5017063;28;20449;-74
2022/01/28 01:20:55;;;;;;;0.97;0.53;;;5.80;1.00;;;;;;5016038;28;20453;-74
2022/01/28 01:23:26;;;;;;;0.50;0.10;;;;;;;;;;5000001;28;20469;-73
2022/01/28 01:25:59;;;;;;;0.50;0.20;;;5.80;1.00;;;;;;4995418;28;20497;-72
2022/01/28 01:28:31;;;;;;;0.50;0.30;;;5.90;1.00;;;;;;4995113;28;20447;-74
2022/01/28 01:31:01;;;;;;;1.17;0.40;;;5.90;1.00;;;;;;4995120;28;20814;-73
2022/01/28 01:33:32;;;;;;;0.50;0.20;;;5.80;1.00;;;;;;4994712;28;20482;-73
2022/01/28 01:36:04;;;;;;;1.10;0.63;;;5.80;1.00;;;;;;4995048;28;20474;-74
2022/01/28 01:38:35;;;;;;;0.60;0.20;;;5.70;1.00;;;;;;5015087;28;20504;-73
2022/01/28 01:41:08;;;;;;;0.50;0.10;;;5.70;1.00;;;;;;5013851;28;20872;-73
2022/01/28 01:43:51;;;;;;;0.50;0.30;;;5.80;1.00;;;;;;5014386;28;20584;-73
2022/01/28 01:46:27;;;;;;;0.50;0.30;;;5.80;1.00;;;;;;5013460;28;20441;-74
2022/01/28 01:54:28;;;;;;;0.50;0.10;;;5.90;1.00;;;;;;4994433;28;20847;-75
2022/01/28 01:56:56;;;;;;;0.90;0.60;;;5.90;1.00;;;;;;4994073;28;20526;-73
2022/01/28 01:59:24;;;;;;;1.23;0.80;;;6.90;1.00;;;;;;4993928;28;20542;-73
2022/01/28 02:01:52;;;;;;;0.73;0.73;;;5.90;1.00;;;;;;4994168;28;20508;-73
2022/01/28 02:04:22;;;;;;;0.50;0.20;;;5.90;1.00;;;;;;4994336;28;20474;-72
2022/01/28 02:06:53;;;;;;;0.50;0.20;;;5.80;1.00;;;;;;5012045;28;20460;-72
2022/01/28 02:09:21;;;;;;;0.90;0.37;;;5.80;1.00;;;;;;5013397;28;20437;-72
2022/01/28 02:11:49;;;;;;;0.67;0.43;;;5.80;1.00;;;;;;5013062;28;20941;-73
2022/01/28 02:14:17;;;;;;;0.50;0.20;;;5.80;1.00;;;;;;5012993;28;20909;-73
2022/01/28 02:16:45;;;;;;;0.50;0.10;;;5.80;1.00;;;;;;5014220;28;20480;-73
2022/01/28 02:19:13;;;;;;;1.33;0.47;;;;;;;;;;5010905;28;20476;-72
2022/01/28 02:21:46;;;;;;;0.60;0.50;;;5.80;1.00;;;;;;4993389;28;20455;-72
2022/01/28 02:24:17;;;;;;;0.50;0.20;;;5.80;1.00;;;;;;4993044;28;20454;-73
2022/01/28 02:26:45;;;;;;;0.50;0.20;;;5.80;1.00;;;;;;4993529;28;20941;-73
2022/01/28 02:29:15;;;;;;;0.50;0.20;;;5.80;1.00;;;;;;4994184;28;20822;-73
2022/01/28 02:31:43;;;;;;;0.50;0.20;;;5.80;1.00;;;;;;4996648;28;20440;-74
2022/01/28 02:34:12;;;;;;;0.60;0.30;;;5.70;1.00;;;;;;5000577;28;20482;-72
2022/01/28 02:36:41;;;;;;;0.80;0.57;;;5.70;1.00;;;;;;5012960;28;21031;-73
2022/01/28 02:39:11;;;;;;;2.50;0.93;;;5.60;1.00;;;;;;5012425;28;20529;-72
2022/01/28 02:41:43;;;;;;;0.60;0.20;;;5.60;1.00;;;;;;5012919;28;20828;-74
2022/01/28 02:44:18;;;;;;;1.77;1.07;;;3.80;1.00;;;;;;5012779;28;20557;-73
2022/01/28 02:46:57;;;;;;;1.00;0.90;;;5.50;1.00;;;;;;5013671;28;20478;-73
2022/01/28 02:49:29;;;;;;;0.50;0.10;;;5.60;1.00;;;;;;4998764;28;20502;-74
2022/01/28 02:51:58;;;;;;;0.50;0.10;;;5.60;1.00;;;;;;5010749;28;20454;-74
2022/01/28 02:54:26;;;;;;;0.60;0.30;;;6.90;1.00;;;;;;5012374;28;20553;-73
2022/01/28 02:56:59;;;;;;;0.60;0.30;;;5.60;1.00;;;;;;5013012;28;20536;-74
2022/01/28 02:59:27;;;;;;;0.50;0.20;;;5.60;1.00;;;;;;5012906;28;20983;-74
2022/01/28 03:01:55;;;;;;;0.60;0.47;;;5.60;1.00;;;;;;5012422;28;20460;-73
2022/01/28 03:04:50;;;;;;;0.60;0.20;;;5.50;1.00;;;;;;5008535;28;20977;-73
2022/01/28 03:07:22;;;;;;;0.50;0.10;;;5.50;1.00;;;;;;4993964;28;20446;-74
2022/01/28 03:10:12;;;;;;;0.60;0.33;;;5.50;1.00;;;;;;4993027;28;20458;-73
2022/01/28 03:13:00;;;;;;;0.50;0.10;;;5.40;1.00;;;;;;4992316;28;20573;-73
2022/01/28 03:15:26;;;;;;;1.30;0.43;;;5.40;1.00;;;;;;4992438;28;20456;-73
2022/01/28 03:18:06;;;;;;;0.50;0.30;;;5.30;1.00;;;;;;4993391;28;20452;-73
2022/01/28 03:20:39;;;;;;;0.50;0.10;;;5.30;1.00;;;;;;4993428;28;20477;-72
2022/01/28 03:23:10;;;;;;;0.50;0.10;;;5.40;1.00;;;;;;4993437;28;20981;-73
2022/01/28 03:25:42;;;;;;;0.50;0.20;;;5.40;1.00;;;;;;5000261;28;20460;-73
2022/01/28 03:28:11;;;;;;;0.50;0.10;;;5.40;1.00;;;;;;5013579;28;20461;-73
2022/01/28 03:30:39;;;;;;;0.70;0.40;;;5.40;1.00;;;;;;5013000;28;20443;-71
2022/01/28 03:33:07;;;;;;;0.70;0.47;;;5.40;1.00;;;;;;4995070;28;20551;-73
2022/01/28 03:35:36;;;;;;;0.50;0.10;;;5.50;1.00;;;;;;4995361;28;20541;-73
2022/01/28 03:38:07;;;;;;;0.60;0.30;;;5.50;1.00;;;;;;4995951;28;20485;-73
2022/01/28 03:40:37;;;;;;;0.50;0.10;;;5.50;1.00;;;;;;4994484;28;20486;-74
2022/01/28 03:43:06;;;;;;;0.50;0.10;;;5.50;1.00;;;;;;4995558;28;20464;-73
2022/01/28 03:45:36;;;;;;;0.50;0.20;;;5.50;1.00;;;;;;4998461;28;21054;-73
2022/01/28 03:48:04;;;;;;;1.53;0.70;;;5.50;1.00;;;;;;5012778;28;20493;-73
2022/01/28 03:50:34;;;;;;;0.50;0.10;;;5.50;1.00;;;;;;5012178;28;20632;-73
2022/01/28 03:53:02;;;;;;;0.50;0.10;;;5.50;1.00;;;;;;5011852;28;21008;-73
2022/01/28 03:55:30;;;;;;;0.50;0.10;;;5.50;1.00;;;;;;5011991;28;20450;-73
2022/01/28 03:57:59;;;;;;;0.60;0.40;;;5.50;1.00;;;;;;5011354;28;20968;-73
2022/01/28 04:00:30;;;;;;;0.50;0.10;;;5.50;1.00;;;;;;5003297;28;20454;-72
2022/01/28 04:03:05;;;;;;;1.00;0.77;;;5.40;1.00;;;;;;4991670;28;20802;-73
2022/01/28 04:11:25;;;;;;;1.27;0.30;;;5.40;1.00;;;;;;4991357;28;20547;-72
2022/01/28 04:11:29;;;;;;;0.60;0.30;;;5.30;1.00;;;;;;4992151;28;20456;-73
2022/01/28 04:14:13;;;;;;;0.50;0.10;;;5.30;1.00;;;;;;4992302;28;20582;-73
2022/01/28 04:19:27;;;;;;;0.50;0.20;;;5.20;1.00;;;;;;5011077;28;20457;-72
2022/01/28 04:21:55;;;;;;;1.33;0.40;;;;;;;;;;5010955;28;21050;-74
2022/01/28 04:24:23;;;;;;;0.50;0.20;;;5.20;1.00;;;;;;5003951;28;20478;-73
2022/01/28 04:26:51;;;;;;;1.63;1.40;;;5.20;1.00;;;;;;5007068;28;20813;-72
2022/01/28 04:29:21;;;;;;;1.70;0.70;;;;;;;;;;5015498;28;20597;-73
2022/01/28 04:31:48;;;;;;;0.50;0.23;;;5.20;1.00;;;;;;5015829;28;20460;-73
2022/01/28 04:34:19;;;;;;;0.50;0.20;;;5.20;1.00;;;;;;5015186;28;20531;-72
2022/01/28 04:36:55;;;;;;;0.70;0.30;;;5.30;1.00;;;;;;5015702;28;20527;-74
2022/01/28 04:39:29;;;;;;;0.97;0.97;;;5.30;1.00;;;;;;5014358;28;20458;-73
2022/01/28 04:42:06;;;;;;;0.90;0.30;;;5.30;1.00;;;;;;5014509;28;20534;-73
2022/01/28 04:44:44;;;;;;;0.60;0.20;;;5.30;1.00;;;;;;4998308;28;20810;-73
2022/01/28 04:47:18;;;;;;;2.97;1.70;;;5.30;1.00;;;;;;4993697;28;20437;-72
2022/01/28 04:49:56;;;;;;;0.50;0.10;;;5.30;1.00;;;;;;4994109;28;20687;-72
2022/01/28 04:52:52;;;;;;;0.50;0.10;;;5.30;1.00;;;;;;4995527;28;20522;-74
2022/01/28 04:55:36;;;;;;;0.60;0.30;;;5.30;1.00;;;;;;4994539;28;20528;-73
2022/01/28 04:58:16;;;;;;;0.50;0.10;;;5.30;1.00;;;;;;4996069;28;20449;-73
2022/01/28 05:00:56;;;;;;;0.50;0.20;;;;;;;;;;4995228;28;20984;-74
2022/01/28 05:09:49;;;;;;;0.50;0.10;;;5.40;1.00;;;;;;4996459;28;20773;-73
2022/01/28 05:12:41;;;;;;;0.60;0.40;;;5.40;1.00;;;;;;5001463;28;20532;-74
2022/01/28 05:15:33;;;;;;;0.97;0.53;;;5.30;1.00;;;;;;5014277;28;20492;-73
2022/01/28 05:26:33;;;;;;;2.50;0.40;;;5.30;1.00;;;;;;5008267;28;20538;-74
2022/01/28 05:29:00;;;;;;;1.53;1.03;;;5.40;1.00;;;;;;4994380;28;20448;-73
2022/01/28 05:31:29;;;;;;;1.13;0.50;;;5.40;1.00;;;;;;5004699;28;20460;-73
2022/01/28 05:34:02;;;;;;;0.87;0.87;;;5.50;1.00;;;;;;5018419;28;20558;-73
2022/01/28 05:36:30;;;;;;;0.50;0.10;;;5.50;1.00;;;;;;5027048;28;20442;-73
2022/01/28 05:38:58;;;;;;;0.50;0.10;;;5.60;1.00;;;;;;5014923;28;20446;-72
2022/01/28 05:41:26;;;;;;;0.60;0.40;;;5.70;1.00;;;;;;5014272;28;20453;-73
2022/01/28 05:43:54;;;;;;;0.50;0.10;;;5.80;1.00;;;;;;5014170;28;20473;-73
2022/01/28 05:46:22;;;;;;;0.50;0.10;;;8.00;1.00;;;;;;5013957;28;20461;-75
2022/01/28 05:48:50;;;;;;;1.47;1.37;;;5.90;1.00;;;;;;5014348;28;20948;-72
2022/01/28 05:51:19;;;;;;;1.77;0.40;;;5.00;1.00;;;;;;5014414;28;20537;-73
2022/01/28 05:53:47;;;;;;;0.50;0.10;;;5.90;1.00;;;;;;5013821;28;20953;-73
2022/01/28 05:56:15;;;;;;;0.50;0.10;;;6.00;1.00;;;;;;4996642;28;20459;-73
2022/01/28 05:58:43;;;;;;;0.50;0.10;;;6.00;1.00;;;;;;5005909;28;20503;-72
2022/01/28 06:01:10;;;;;;;0.50;0.20;;;6.00;1.00;;;;;;5013950;28;20481;-73
2022/01/28 06:03:39;;;;;;;0.57;0.27;;;6.10;1.00;;;;;;5013355;28;20969;-72
2022/01/28 06:06:08;;;;;;;0.63;0.37;;;6.10;1.00;;;;;;5013023;28;20447;-73
2022/01/28 06:08:37;;;;;;;0.50;0.10;;;6.10;1.00;;;;;;5012567;28;20455;-74
2022/01/28 06:11:05;;;;;;;0.50;0.10;;;6.10;1.00;;;;;;5013378;28;20451;-74
2022/01/28 06:13:33;;;;;;;0.50;0.10;;;6.20;1.00;;;;;;5013989;28;20479;-74
2022/01/28 06:16:01;;;;;;;6.60;0.67;;;6.20;1.00;;;;;;5012423;28;20471;-73
2022/01/28 06:18:29;;;;;;;0.50;0.30;;;6.20;1.00;;;;;;5010332;28;20995;-73
2022/01/28 06:20:58;;;;;;;0.50;0.20;;;;;;;;;;5014375;28;20451;-73
2022/01/28 06:23:26;;;;;;;0.50;0.10;;;6.20;1.00;;;;;;5015040;28;22617;-73
2022/01/28 06:25:55;;;;;;;1.33;0.87;;;6.20;1.00;;;;;;5014059;28;20541;-73
2022/01/28 06:28:23;;;;;;;0.50;0.20;;;6.10;1.00;;;;;;5017475;28;20464;-73
2022/01/28 06:30:51;;;;;;;0.50;0.20;;;6.10;1.00;;;;;;5024785;28;20541;-75
2022/01/28 06:33:19;;;;;;;0.50;0.10;;;6.10;1.00;;;;;;5034547;28;20491;-73
2022/01/28 06:35:48;;;;;;;0.50;0.10;;;6.00;1.00;;;;;;5034506;28;20485;-73
2022/01/28 06:38:16;;;;;;;3.00;0.83;;;6.00;1.00;;;;;;5024322;28;20467;-74
2022/01/28 06:40:45;;;;;;;0.50;0.13;;;6.10;1.00;;;;;;5010195;28;21010;-74
2022/01/28 06:43:15;;;;;;;0.50;0.10;;;6.00;1.00;;;;;;5018248;28;20872;-73
2022/01/28 06:45:43;;;;;;;0.50;0.30;;;6.00;1.00;;;;;;5027167;28;20473;-74
2022/01/28 06:48:11;;;;;;;0.50;0.10;;;6.00;1.00;;;;;;5034979;28;20788;-74
2022/01/28 06:50:41;;;;;;;0.50;0.10;;;6.00;1.00;;;;;;5036223;28;20484;-74
2022/01/28 06:53:09;;;;;;;1.90;1.80;;;5.90;1.00;;;;;;5017226;28;20490;-73
2022/01/28 06:55:37;;;;;;;0.77;0.60;;;;;;;;;;5022343;28;20477;-73
2022/01/28 06:58:07;;;;;;;0.50;0.10;;;5.90;1.00;;;;;;5009463;28;20438;-73
2022/01/28 07:00:37;;;;;;;1.13;1.07;;;5.90;1.00;;;;;;5010122;28;20478;-73
2022/01/28 07:03:06;;;;;;;0.50;0.10;;;5.90;1.00;;;;;;5011323;28;20493;-74
2022/01/28 07:05:35;;;;;;;0.50;0.10;;;5.90;1.00;;;;;;5020338;28;20469;-73
2022/01/28 07:08:03;;;;;;;0.50;0.10;;;5.90;1.00;;;;;;5014412;28;20461;-73
2022/01/28 07:10:32;;;;;;;0.50;0.10;;;6.00;1.00;;;;;;5019395;28;20500;-74
2022/01/28 07:13:00;;;;;;;0.50;0.10;;;6.00;1.00;;;;;;5016059;28;20468;-74
2022/01/28 07:15:29;;;;;;;0.50;0.10;;;6.00;1.00;;;;;;5023039;28;20497;-74
2022/01/28 07:18:02;;;;;;;0.50;0.10;;;6.10;1.00;;;;;;5013274;28;21007;-74
2022/01/28 07:20:30;;;;;;;0.50;0.10;;;6.10;1.00;;;;;;5013618;28;20955;-74
2022/01/28 07:22:59;;;;;;;0.50;0.10;;;6.10;1.00;;;;;;5013983;28;20870;-73
2022/01/28 07:25:27;;;;;;;1.90;1.80;;;6.10;1.00;;;;;;5000173;28;20517;-74
2022/01/28 07:27:55;;;;;;;0.50;0.10;;;6.10;1.00;;;;;;4996916;28;20486;-74
2022/01/28 07:30:23;;;;;;;0.50;0.10;;;6.20;1.00;;;;;;5009082;28;20937;-73
2022/01/28 07:32:52;;;;;;;0.50;0.10;;;6.20;1.00;;;;;;5017237;28;20478;-74
2022/01/28 07:35:22;;;;;;;0.50;0.10;;;6.20;1.00;;;;;;5017600;28;20575;-72
2022/01/28 07:37:49;;;;;;;0.50;0.10;;;6.20;1.00;;;;;;5018406;28;20484;-74
2022/01/28 07:40:17;;;;;;;0.70;0.60;;;6.20;1.00;;;;;;5017983;28;20462;-74
2022/01/28 07:42:45;;;;;;;0.50;0.10;;;6.20;1.00;;;;;;5017911;28;20459;-73
2022/01/28 07:45:16;;;;;;;0.50;0.10;;;6.20;1.00;;;;;;5022795;28;20451;-73
2022/01/28 07:47:45;;;;;;;0.57;0.40;;;;;;;;;;5029411;28;20495;-74
2022/01/28 07:50:14;;;;;;;0.50;0.10;;;6.20;1.00;;;;;;5027577;28;20927;-73
2022/01/28 07:52:44;;;;;;;0.50;0.10;;;6.10;1.00;;;;;;5024441;28;20500;-73
2022/01/28 07:55:14;;;;;;;0.50;0.20;;;6.20;1.00;;;;;;5011986;28;20489;-73
2022/01/28 07:57:43;;;;;;;0.50;0.20;;;6.20;1.00;;;;;;5018164;28;20549;-73
2022/01/28 08:00:14;;;;;;;1.80;1.70;;;6.20;1.00;;;;;;5018660;28;20442;-74
2022/01/28 08:02:42;;;;;;;9.47;2.83;;;6.10;1.00;;;;;;5017251;28;20470;-74
2022/01/28 08:05:12;;;;;;;0.50;0.10;;;6.10;1.00;;;;;;5016236;28;20496;-73
2022/01/28 08:07:40;;;;;;;0.50;0.10;;;6.00;1.00;;;;;;5005896;28;20445;-73
2022/01/28 08:10:16;;;;;;;0.50;0.17;;;7.10;1.00;;;;;;5017777;28;20445;-74
2022/01/28 08:12:45;;;;;;;0.50;0.10;;;6.00;1.00;;;;;;5010446;28;20494;-73
2022/01/28 08:15:14;;;;;;;0.50;0.10;;;6.00;1.00;;;;;;5021858;28;20574;-73
2022/01/28 08:17:42;;;;;;;0.50;0.10;;;6.10;1.00;;;;;;5030873;28;20459;-73
2022/01/28 08:20:11;;;;;;;1.13;0.73;;;6.10;1.00;;;;;;5023430;28;20467;-74
2022/01/28 08:22:46;;;;;;;0.50;0.17;;;6.10;1.00;;;;;;5027421;28;21055;-77
2022/01/28 08:25:17;;;;;;;0.60;0.60;;;6.20;1.00;;;;;;5013914;28;20457;-76
2022/01/28 08:27:46;;;;;;;0.50;0.10;;;6.20;1.00;;;;;;4997795;28;20534;-75
2022/01/28 08:30:16;;;;;;;0.87;0.67;;;6.20;1.00;;;;;;4998662;28;20435;-77
2022/01/28 08:32:44;;;;;;;0.50;0.20;;;6.30;1.00;;;;;;5013718;28;20501;-75
2022/01/28 08:35:13;;;;;;;0.90;0.53;;;6.30;1.00;;;;;;4996175;28;20491;-76
2022/01/28 08:37:42;;;;;;;0.80;0.47;;;6.20;1.00;;;;;;4998409;28;20501;-76
2022/01/28 08:40:12;;;;;;;0.50;0.27;;;6.20;1.00;;;;;;4996820;28;20533;-76
2022/01/28 08:42:42;;;;;;;0.50;0.10;;;6.20;1.00;;;;;;4996968;28;20471;-76
2022/01/28 08:45:11;;;;;;;0.50;0.10;;;6.20;1.00;;;;;;4997069;28;20537;-77
2022/01/28 08:47:39;;;;;;;0.50;0.10;;;6.20;1.00;;;;;;4997326;28;20455;-76
2022/01/28 08:50:07;;;;;;;0.60;0.40;;;6.40;1.00;;;;;;4997060;28;20607;-76
2022/01/28 08:52:36;;;;;;;0.50;0.10;;;6.40;1.00;;;;;;4996969;28;20473;-77
2022/01/28 08:55:06;;;;;;;0.60;0.50;;;6.50;1.00;;;;;;4996339;28;21021;-77
2022/01/28 08:57:43;;;;;;;0.50;0.10;;;;;;;;;;4997644;28;20535;-77
2022/01/28 09:00:17;;;;;;;0.60;0.30;;;6.40;1.00;;;;;;5014697;28;20475;-74
2022/01/28 09:02:45;;;;;;;0.80;0.67;;;6.40;1.00;;;;;;5034804;28;20982;-77
2022/01/28 09:05:13;;;;;;;0.50;0.10;;;6.40;1.00;;;;;;5038287;28;20474;-77
2022/01/28 09:07:44;;;;;;;1.00;0.70;;;6.50;1.00;;;;;;5024059;28;20461;-77
2022/01/28 09:10:18;;;;;;;0.50;0.20;;;6.50;1.00;;;;;;5017035;28;20465;-76
2022/01/28 09:12:49;;;;;;;0.50;0.10;;;6.60;1.00;;;;;;5020424;28;20582;-75
2022/01/28 09:15:19;;;;;;;1.00;0.50;;;6.60;1.00;;;;;;5012575;28;20461;-75
2022/01/28 09:17:57;;;;;;;0.90;0.63;;;6.50;1.00;;;;;;5031967;28;20867;-77
2022/01/28 09:20:29;;;;;;;0.67;0.40;;;6.50;1.00;;;;;;5015841;28;20442;-76
2022/01/28 09:22:57;;;;;;;0.50;0.10;;;6.60;1.00;;;;;;5016256;28;20489;-76
2022/01/28 09:25:26;;;;;;;0.50;0.10;;;6.60;1.00;;;;;;5017324;28;20442;-78
2022/01/28 09:27:55;;;;;;;0.50;0.10;;;6.60;1.00;;;;;;5018584;28;20458;-76
2022/01/28 09:30:24;;;;;;;0.60;0.30;;;6.60;1.00;;;;;;5023004;28;20514;-77
2022/01/28 09:32:53;;;;;;;0.70;0.33;;;6.50;1.00;;;;;;5022505;28;20822;-76
2022/01/28 09:35:21;;;;;;;2.30;0.90;;;6.50;1.00;;;;;;5019308;28;20477;-76
2022/01/28 09:37:49;;;;;;;5.57;2.20;;;6.60;1.00;;;;;;5017057;28;20455;-77
2022/01/28 09:40:17;;;;;;;0.50;0.10;;;6.50;1.00;;;;;;5014748;28;20792;-77
2022/01/28 09:42:47;;;;;;;0.50;0.20;;;6.60;1.00;;;;;;5009537;28;20479;-77
2022/01/28 09:45:17;;;;;;;0.50;0.10;;;6.60;1.00;;;;;;4996538;28;20451;-77
2022/01/28 09:47:47;;;;;;;0.50;0.10;;;6.70;1.00;;;;;;4996062;28;20455;-77
2022/01/28 09:50:15;;;;;;;0.50;0.10;;;6.80;1.00;;;;;;4995320;28;20542;-75
2022/01/28 09:52:43;;;;;;;0.50;0.10;;;6.70;1.00;;;;;;5011483;28;20484;-76
2022/01/28 09:55:12;;;;;;;0.50;0.10;;;6.80;1.00;;;;;;5015582;28;20449;-76
2022/01/28 09:57:41;;;;;;;0.50;0.10;;;6.70;1.00;;;;;;5004580;28;20483;-76
2022/01/28 10:00:11;;;;;;;0.50;0.10;;;6.80;1.00;;;;;;4997389;28;20492;-77
2022/01/28 10:02:51;;;;;;;0.50;0.10;;;6.80;1.00;;;;;;4998177;28;20505;-74
2022/01/28 10:05:21;;;;;;;0.50;0.10;;;6.80;1.00;;;;;;4997086;28;20478;-77
2022/01/28 10:08:14;;;;;;;0.50;0.10;;;7.00;1.00;;;;;;4996587;28;20454;-76
2022/01/28 10:10:45;;;;;;;1.77;1.50;;;7.00;1.00;;;;;;5007995;28;20451;-76
2022/01/28 10:13:17;;;;;;;0.50;0.10;;;7.10;1.00;;;;;;5000196;28;20506;-76
2022/01/28 10:15:54;;;;;;;0.50;0.10;;;7.20;1.00;;;;;;4997571;28;20432;-76
2022/01/28 10:18:41;;;;;;;0.50;0.10;;;7.20;1.00;;;;;;5021883;28;20525;-75
2022/01/28 10:21:27;;;;;;;0.50;0.10;;;7.30;1.00;;;;;;5020051;28;20474;-75
2022/01/28 10:24:02;;;;;;;0.50;0.10;;;7.30;1.00;;;;;;5032900;28;20496;-75
2022/01/28 10:26:31;;;;;;;0.50;0.10;;;7.30;1.00;;;;;;5026198;28;21004;-76
2022/01/28 10:29:00;;;;;;;1.03;0.67;;;7.40;1.00;;;;;;5016350;28;20605;-76
2022/01/28 10:31:36;;;;;;;0.50;0.10;;;7.20;1.00;;;;;;5015817;28;20847;-75
2022/01/28 10:34:16;;;;;;;0.50;0.10;;;7.20;1.00;;;;;;5015039;28;20477;-77
2022/01/28 10:36:46;;;;;;;0.53;0.20;;;7.00;1.00;;;;;;5026949;28;20565;-76
2022/01/28 10:39:17;;;;;;;0.50;0.10;;;7.00;1.00;;;;;;5001987;28;20484;-77
2022/01/28 10:42:06;;;;;;;2.10;0.40;;;7.00;1.00;;;;;;4999217;28;20456;-77
2022/01/28 10:44:34;;;;;;;0.50;0.10;;;7.00;1.00;;;;;;4990754;28;20567;-77
2022/01/28 10:47:06;;;;;;;7.20;2.13;;;7.00;1.00;;;;;;4994841;28;20450;-76
2022/01/28 10:49:36;;;;;;;0.50;0.10;;;7.00;1.00;;;;;;5008714;28;20509;-79
2022/01/28 10:52:08;;;;;;;1.40;1.30;;;7.00;1.00;;;;;;5014635;28;20545;-78
2022/01/28 10:54:36;;;;;;;2.30;0.70;;;7.00;1.00;;;;;;5010139;28;20550;-78
2022/01/28 10:57:07;;;;;;;0.50;0.10;;;7.00;1.00;;;;;;5003232;28;20566;-77
2022/01/28 10:59:37;;;;;;;0.60;0.40;;;7.00;1.00;;;;;;5015472;28;20458;-78
2022/01/28 11:02:06;;;;;;;0.70;0.67;;;7.10;1.00;;;;;;5012211;28;20938;-77
2022/01/28 11:04:36;;;;;;;0.50;0.10;;;7.10;1.00;;;;;;4994386;28;20530;-77
2022/01/28 11:07:05;;;;;;;0.80;0.20;;;7.10;1.00;;;;;;4994841;28;20519;-78
2022/01/28 11:09:33;;;;;;;0.50;0.10;;;7.10;1.00;;;;;;5007796;28;20515;-78
2022/01/28 11:12:01;;;;;;;0.60;0.40;;;7.10;1.00;;;;;;5014748;28;20446;-77
2022/01/28 11:14:29;;;;;;;0.50;0.20;;;7.30;1.00;;;;;;5019198;28;20513;-76
2022/01/28 11:16:59;;;;;;;0.50;0.10;;;7.40;1.00;;;;;;5021383;28;20486;-75
2022/01/28 11:19:32;;;;;;;0.87;0.40;;;7.60;1.00;;;;;;5036404;28;20566;-76
2022/01/28 11:22:16;;;;;;;0.50;0.10;;;7.60;1.00;;;;;;5047042;23;20876;-76
2022/01/28 11:25:08;;;;;;;0.60;0.37;;;7.60;1.00;;;;;;5047259;28;20505;-77
2022/01/28 11:27:40;;;;;;;0.50;0.20;;;7.70;1.00;;;;;;5037360;28;20440;-75
2022/01/28 11:30:20;;;;;;;1.33;0.77;;;7.70;1.00;;;;;;5034894;28;20514;-75
2022/01/28 11:33:02;;;;;;;0.50;0.10;;;7.70;1.00;;;;;;5046460;28;20848;-75
2022/01/28 11:35:33;;;;;;;0.57;0.10;;;7.60;99.90;;;;;;5053924;28;20450;-76
2022/01/28 11:38:23;;;;;;;0.60;0.30;;;7.60;99.90;;;;;;5055286;28;20483;-76
2022/01/28 11:40:56;;;;;;;7.53;1.30;;;7.60;99.90;;;;;;5055094;28;20478;-74
2022/01/28 11:43:26;;;;;;;0.60;0.20;;;7.60;99.90;;;;;;5054273;28;20460;-76
2022/01/28 11:46:06;;;;;;;0.60;0.10;;;7.60;99.90;;;;;;5066628;28;20452;-73
2022/01/28 11:49:15;;;;;;;0.60;0.10;;;7.70;99.90;;;;;;5067953;28;20454;-74
2022/01/28 11:51:47;;;;;;;1.90;0.47;;;7.80;99.90;;;;;;5052111;28;20469;-74
2022/01/28 11:54:21;;;;;;;0.60;0.10;;;7.90;99.90;;;;;;5047107;28;20480;-73
2022/01/28 11:57:13;;;;;;;0.60;0.20;;;8.00;99.90;;;;;;5050387;28;20443;-74
2022/01/28 11:59:44;;;;;;;0.80;0.33;;;8.00;99.90;;;;;;5063069;28;20524;-74
2022/01/28 12:02:18;;;;;;;0.60;0.10;;;8.10;99.90;;;;;;5072362;28;20464;-74
2022/01/28 12:04:46;;;;;;;0.60;0.10;;;8.10;99.90;;;;;;5072094;28;20560;-75
2022/01/28 12:07:21;;;;;;;1.00;0.67;;;8.10;99.90;;;;;;5074268;28;20452;-74
2022/01/28 12:09:52;;;;;;;0.60;0.10;;;8.00;99.90;;;;;;5074369;28;20548;-74
2022/01/28 12:12:24;;;;;;;0.60;0.10;;;7.90;99.90;;;;;;5073159;28;20488;-74
2022/01/28 12:15:15;;;;;;;0.63;0.30;;;7.90;99.90;;;;;;5059150;28;20454;-74
2022/01/28 12:17:48;;;;;;;0.60;0.10;;;7.90;99.90;;;;;;5055910;28;20477;-75
2022/01/28 12:20:44;;;;;;;0.60;0.20;;;7.90;99.90;;;;;;5051009;28;20479;-75
2022/01/28 12:23:29;;;;;;;0.60;0.20;;;7.90;99.90;;;;;;5052060;28;21046;-75
2022/01/28 12:26:00;;;;;;;0.70;0.43;;;7.90;99.90;;;;;;5068403;28;20466;-73
2022/01/28 12:28:44;;;;;;;0.60;0.10;;;7.90;99.90;;;;;;5056258;28;20969;-74
2022/01/28 12:31:16;;;;;;;3.40;0.73;;;8.10;99.90;;;;;;5065077;28;20445;-74
2022/01/28 12:33:47;;;;;;;0.60;0.20;;;8.20;99.90;;;;;;5073044;28;20453;-75
2022/01/28 12:36:17;;;;;;;0.60;0.10;;;8.20;99.90;;;;;;5070319;28;20446;-75
2022/01/28 12:38:59;;;;;;;0.60;0.43;;;8.20;99.90;;;;;;5052096;28;20484;-74
2022/01/28 12:41:40;;;;;;;0.60;0.10;;;8.20;99.90;;;;;;5052067;28;21039;-75
2022/01/28 12:44:08;;;;;;;0.60;0.20;;;8.20;99.90;;;;;;5070861;28;20445;-73
2022/01/28 12:46:39;;;;;;;0.60;0.10;;;8.20;99.90;;;;;;5074915;28;20453;-71
2022/01/28 12:49:10;;;;;;;3.13;0.50;;;8.20;99.90;;;;;;5076922;28;20443;-75
2022/01/28 12:51:40;;;;;;;3.23;0.50;;;;;;;;;;5075904;28;20544;-73
2022/01/28 12:54:08;;;;;;;1.33;0.30;;;8.10;99.90;;;;;;5075809;28;20428;-74
2022/01/28 12:56:41;;;;;;;0.60;0.10;;;8.10;99.90;;;;;;5075789;28;20453;-74
2022/01/28 12:59:11;;;;;;;0.60;0.20;;;8.20;99.90;;;;;;5075072;28;20543;-74
2022/01/28 13:01:39;;;;;;;2.30;1.13;;;8.20;99.90;;;;;;5076883;28;20562;-75
2022/01/28 13:04:12;;;;;;;0.60;0.10;;;8.20;99.90;;;;;;5079169;28;20490;-73
2022/01/28 13:08:24;;;;;;;0.60;0.10;;;8.20;99.90;;;;;;5077297;28;20494;-76
2022/01/28 13:09:50;;;;;;;0.67;0.43;;;8.40;99.90;;;;;;5073806;28;20453;-77
2022/01/28 13:12:28;;;;;;;0.60;0.10;;;8.40;99.90;;;;;;5063793;28;20478;-75
2022/01/28 13:15:04;;;;;;;0.60;0.20;;;8.40;99.90;;;;;;5073779;28;20993;-75
2022/01/28 13:17:32;;;;;;;0.60;0.20;;;8.60;99.90;;;;;;5065464;28;20591;-74
2022/01/28 13:20:03;;;;;;;0.60;0.20;;;8.40;99.90;;;;;;5059025;28;20439;-76
2022/01/28 13:22:32;;;;;;;1.33;0.53;;;8.30;99.90;;;;;;5058137;28;20978;-73
2022/01/28 13:25:00;;;;;;;0.60;0.10;;;8.20;99.90;;;;;;5060542;28;20481;-77
2022/01/28 13:27:45;;;;;;;1.43;1.30;;;8.10;99.90;;;;;;5068996;28;20520;-76
2022/01/28 13:30:16;;;;;;;0.60;0.10;;;8.10;99.90;;;;;;5037228;28;20475;-75
2022/01/28 13:32:46;;;;;;;0.60;0.10;;;8.10;99.90;;;;;;5041325;28;20499;-74
2022/01/28 13:35:16;;;;;;;0.60;0.20;;;8.20;99.90;;;;;;5062561;28;20517;-73
2022/01/28 13:37:47;;;;;;;0.70;0.30;;;8.30;99.90;;;;;;5072898;28;20556;-74
2022/01/28 13:40:31;;;;;;;0.90;0.60;;;8.30;99.90;;;;;;5077382;28;20422;-73
2022/01/28 13:43:03;;;;;;;1.57;0.57;;;8.30;99.90;;;;;;5075567;28;20551;-73
2022/01/28 13:45:36;;;;;;;1.67;1.57;;;8.20;99.90;;;;;;5079873;28;20946;-74
2022/01/28 13:48:06;;;;;;;0.80;0.30;;;8.20;99.90;;;;;;5087942;28;20444;-73
2022/01/28 13:50:35;;;;;;;1.53;1.03;;;;;;;;;;5066859;28;20461;-72
2022/01/28 13:56:11;;;;;;;0.60;0.10;;;8.00;99.90;;;;;;5064660;28;20468;-73
2022/01/28 13:58:51;;;;;;;0.70;0.50;;;7.90;99.90;;;;;;5063775;28;20476;-71
2022/01/28 14:01:20;;;;;;;1.20;0.30;;;8.00;99.90;;;;;;5055667;28;20544;-72
2022/01/28 14:03:52;;;;;;;0.60;0.10;;;7.90;99.90;;;;;;5056327;28;20448;-73
2022/01/28 14:06:22;;;;;;;1.37;0.70;;;7.90;99.90;;;;;;5055307;28;20510;-74
2022/01/28 14:09:10;;;;;;;0.60;0.10;;;7.90;99.90;;;;;;5060647;28;20456;-74
2022/01/28 14:11:41;;;;;;;0.60;0.30;;;6.30;99.90;;;;;;5060438;28;20487;-75
2022/01/28 14:14:23;;;;;;;0.60;0.20;;;7.90;99.90;;;;;;5071633;28;20441;-76
2022/01/28 14:16:55;;;;;;;0.60;0.10;;;7.90;99.90;;;;;;5054842;28;20445;-79
2022/01/28 14:19:24;;;;;;;0.60;0.10;;;8.00;99.90;;;;;;5055159;28;20487;-72
2022/01/28 14:22:02;;;;;;;22.43;1.90;;;8.40;99.90;;;;;;5056207;28;20847;-71